sensor_id;sensor_type;location;lat;lon;timestamp;pressure;altitude;pressure_sealevel;temperature;humidity
71565;BME280;59397;50.952;14.502;2023-06-22T00:10:29;975.13;;;16.58;100.00
71565;BME280;59397;50.952;14.502;2023-06-22T00:30:05;975.32;;;15.90;100.00
71565;BME280;59397;50.952;14.502;2023-06-22T00:49:36;975.29;;;15.89;100.00
71565;BME280;59397;50.952;14.502;2023-06-22T01:09:12;975.39;;;16.19;100.00
71565;BME280;59397;50.952;14.502;2023-06-22T01:28:43;975.29;;;15.65;100.00
71565;BME280;59397;50.952;14.502;2023-06-22T01:48:14;975.17;;;15.14;100.00
71565;BME280;59397;50.952;14.502;2023-06-22T02:07:46;975.14;;;14.45;100.00
71565;BME280;59397;50.952;14.502;2023-06-22T02:27:19;975.06;;;14.20;100.00
71565;BME280;59397;50.952;14.502;2023-06-22T02:46:51;975.11;;;13.90;100.00
71565;BME280;59397;50.952;14.502;2023-06-22T03:06:24;975.15;;;13.65;100.00
71565;BME280;59397;50.952;14.502;2023-06-22T03:25:59;975.31;;;14.10;100.00
71565;BME280;59397;50.952;14.502;2023-06-22T03:45:34;975.33;;;14.56;100.00
71565;BME280;59397;50.952;14.502;2023-06-22T04:05:13;974.90;;;15.40;100.00
71565;BME280;59397;50.952;14.502;2023-06-22T04:24:48;974.94;;;15.61;100.00
71565;BME280;59397;50.952;14.502;2023-06-22T04:44:27;975.09;;;17.62;100.00
71565;BME280;59397;50.952;14.502;2023-06-22T05:04:06;975.06;;;19.58;95.22
71565;BME280;59397;50.952;14.502;2023-06-22T05:23:46;975.48;;;20.82;91.14
71565;BME280;59397;50.952;14.502;2023-06-22T05:43:24;975.78;;;22.35;82.37
71565;BME280;59397;50.952;14.502;2023-06-22T06:02:58;976.01;;;21.69;83.50
71565;BME280;59397;50.952;14.502;2023-06-22T06:22:36;975.77;;;22.51;83.79
71565;BME280;59397;50.952;14.502;2023-06-22T06:42:11;975.58;;;23.06;82.90
71565;BME280;59397;50.952;14.502;2023-06-22T07:01:47;975.32;;;23.37;82.17
71565;BME280;59397;50.952;14.502;2023-06-22T07:21:23;974.79;;;23.90;78.95
71565;BME280;59397;50.952;14.502;2023-06-22T07:41:00;974.63;;;24.24;75.11
71565;BME280;59397;50.952;14.502;2023-06-22T08:00:35;975.02;;;24.65;73.81
71565;BME280;59397;50.952;14.502;2023-06-22T08:20:10;974.95;;;24.68;67.82
71565;BME280;59397;50.952;14.502;2023-06-22T08:39:46;974.84;;;25.28;73.14
71565;BME280;59397;50.952;14.502;2023-06-22T08:59:19;974.98;;;24.73;71.87
71565;BME280;59397;50.952;14.502;2023-06-22T09:18:56;974.73;;;25.51;68.86
71565;BME280;59397;50.952;14.502;2023-06-22T09:38:31;974.51;;;26.14;67.62
71565;BME280;59397;50.952;14.502;2023-06-22T09:58:08;974.44;;;26.01;68.24
71565;BME280;59397;50.952;14.502;2023-06-22T10:17:46;974.38;;;27.21;66.73
71565;BME280;59397;50.952;14.502;2023-06-22T10:37:20;974.26;;;27.17;63.42
71565;BME280;59397;50.952;14.502;2023-06-22T10:56:53;974.17;;;27.32;63.32
71565;BME280;59397;50.952;14.502;2023-06-22T11:16:28;973.81;;;27.13;63.14
71565;BME280;59397;50.952;14.502;2023-06-22T11:36:00;973.94;;;26.33;66.23
71565;BME280;59397;50.952;14.502;2023-06-22T11:55:40;973.72;;;27.62;62.56
71565;BME280;59397;50.952;14.502;2023-06-22T12:15:16;973.45;;;28.02;61.66
71565;BME280;59397;50.952;14.502;2023-06-22T12:34:51;973.29;;;28.57;59.40
71565;BME280;59397;50.952;14.502;2023-06-22T12:54:24;973.12;;;27.54;62.07
71565;BME280;59397;50.952;14.502;2023-06-22T13:14:02;973.04;;;28.65;59.67
71565;BME280;59397;50.952;14.502;2023-06-22T13:33:35;972.91;;;28.48;59.85
71565;BME280;59397;50.952;14.502;2023-06-22T13:53:05;972.60;;;28.15;63.07
71565;BME280;59397;50.952;14.502;2023-06-22T14:12:37;972.54;;;27.68;62.53
71565;BME280;59397;50.952;14.502;2023-06-22T14:32:11;972.09;;;27.67;63.05
71565;BME280;59397;50.952;14.502;2023-06-22T14:51:45;972.15;;;27.54;64.00
71565;BME280;59397;50.952;14.502;2023-06-22T15:11:18;971.92;;;27.31;64.96
71565;BME280;59397;50.952;14.502;2023-06-22T15:30:52;971.62;;;27.06;65.26
71565;BME280;59397;50.952;14.502;2023-06-22T15:50:27;971.33;;;27.02;65.67
71565;BME280;59397;50.952;14.502;2023-06-22T16:09:59;971.10;;;26.66;67.50
71565;BME280;59397;50.952;14.502;2023-06-22T16:29:33;970.80;;;26.41;68.42
71565;BME280;59397;50.952;14.502;2023-06-22T16:49:06;970.72;;;26.15;68.63
71565;BME280;59397;50.952;14.502;2023-06-22T17:08:39;970.70;;;25.40;71.60
71565;BME280;59397;50.952;14.502;2023-06-22T17:28:14;970.49;;;25.41;72.07
71565;BME280;59397;50.952;14.502;2023-06-22T17:47:46;970.15;;;24.82;74.91
71565;BME280;59397;50.952;14.502;2023-06-22T18:07:20;969.93;;;24.51;75.50
71565;BME280;59397;50.952;14.502;2023-06-22T18:26:52;969.64;;;23.94;78.32
71565;BME280;59397;50.952;14.502;2023-06-22T18:46:29;969.38;;;23.34;80.73
71565;BME280;59397;50.952;14.502;2023-06-22T19:05:58;969.12;;;22.95;83.24
71565;BME280;59397;50.952;14.502;2023-06-22T19:25:30;969.70;;;22.20;88.35
71565;BME280;59397;50.952;14.502;2023-06-22T19:45:05;969.59;;;22.01;90.82
71565;BME280;59397;50.952;14.502;2023-06-22T20:04:38;969.34;;;21.91;91.40
71565;BME280;59397;50.952;14.502;2023-06-22T20:24:12;968.90;;;21.97;90.88
71565;BME280;59397;50.952;14.502;2023-06-22T20:43:44;968.42;;;21.45;95.79
71565;BME280;59397;50.952;14.502;2023-06-22T21:03:20;967.65;;;22.17;91.00
71565;BME280;59397;50.952;14.502;2023-06-22T21:22:57;967.41;;;23.03;84.43
71565;BME280;59397;50.952;14.502;2023-06-22T21:42:28;968.06;;;22.20;90.38
71565;BME280;59397;50.952;14.502;2023-06-22T22:02:04;968.58;;;22.44;88.48
71565;BME280;59397;50.952;14.502;2023-06-22T22:21:39;968.54;;;22.65;87.35
71565;BME280;59397;50.952;14.502;2023-06-22T22:41:14;968.11;;;22.63;89.59
71565;BME280;59397;50.952;14.502;2023-06-22T23:00:48;967.83;;;22.28;92.39
71565;BME280;59397;50.952;14.502;2023-06-22T23:20:22;968.32;;;21.87;98.85
71565;BME280;59397;50.952;14.502;2023-06-22T23:39:53;969.29;;;20.08;100.00
71565;BME280;59397;50.952;14.502;2023-06-22T23:59:22;968.78;;;18.97;100.00
